Weerstation
Sluispark-LeuvenLeuven-Sluispark

Weerstation
Wilsele-PutkapelWilsele-Putkapel



Nabijgelegen vliegvelden - METAR rapporten

   
EBBE - Wilsele bij Leuven
Gewijzigd: 23-03-2023 05:55
Grotendeels bewolkt    Wind: ZZW 29.6 km/h
Grotendeels bewolkt
Wind: Wind: ZZW 29.6 km/h
Temperatuur: 12°C
Dauwpunt: 8°C
Vochtigheid: 77%
Barometer: 1003 hPa
Bewolking: Grotendeels bewolkt
Zicht: meer dan 10 km
Bewolking: Licht bewolkt 640.1 m,
Grotendeels bewolkt 823 m,
Grotendeels bewolkt 975.4 m
EBBE 230455Z AUTO 21016KT 9999 FEW021/// BKN027/// BKN032/// 12/08 Q1003 BLU
EBAW - Antwerp
Gewijzigd: 23-03-2023 06:20
Gedeeltelijk bewolkt    Wind: ZZW 25.9 km/h
Gedeeltelijk bewolkt
Wind: Wind: ZZW 25.9 km/h
Temperatuur: 12°C
Dauwpunt: 7°C
Vochtigheid: 72%
Barometer: 1002 hPa
Bewolking: Gedeeltelijk bewolkt
Zicht: meer dan 10 km
Bewolking: Gedeeltelijk bewolkt 731.5 m,
Gedeeltelijk bewolkt 1219.2 m
EBAW 230520Z 21014KT 180V240 9999 SCT024 SCT040 12/07 Q1002 RERA TEMPO 23016G28KT 4000 SHRA
EBLG - Li├Ęge
Gewijzigd: 23-03-2023 06:20
Grotendeels bewolkt    Wind: ZZW 29.6 km/h
Grotendeels bewolkt
Wind: Wind: ZZW 29.6 km/h
Temperatuur: 11°C
Dauwpunt: 7°C
Vochtigheid: 77%
Barometer: 1004 hPa
Bewolking: Grotendeels bewolkt
Zicht: meer dan 10 km
Bewolking: Grotendeels bewolkt 701 m
EBLG 230520Z 21016KT 9999 BKN023 11/07 Q1004 TEMPO 21017G27KT
EBCV - Mons/Bergen
Gewijzigd: 23-03-2023 06:25
Bewolking    Wind: ZZW 33.3 km/h
Bewolking
Wind: Wind: ZZW 33.3 km/h
Temperatuur: 12°C
Dauwpunt: 8°C
Vochtigheid: 77%
Barometer: 1003 hPa
Bewolking: Bewolking
Zicht: meer dan 10 km
Bewolking: Licht bewolkt 1524 m,
Gedeeltelijk bewolkt 2286 m,
Bewolking 2895.6 m
EBCV 230525Z AUTO 21018KT 9999 FEW050/// SCT075/// OVC095/// 12/08 Q1003 BLU
EHBK - Maastricht
Gewijzigd: 23-03-2023 06:25
Bewolking    Wind: ZW 29.6 km/h
Bewolking
Wind: Wind: ZW 29.6 km/h
Temperatuur: 12°C
Dauwpunt: 8°C
Vochtigheid: 77%
Barometer: 1003 hPa
Bewolking: Bewolking
Zicht: meer dan 10 km
Bewolking: Gedeeltelijk bewolkt 823 m,
Bewolking 914.4 m
EHBK 230525Z AUTO 22016KT 190V250 9999 SCT027/// OVC030/// 12/08 Q1003 TEMPO 7000 -SHRA -RA FEW015CB BKN030
ELLX - Luxemburg
Gewijzigd: 23-03-2023 06:20
Grotendeels bewolkt    Wind: ZW 24.1 km/h
Grotendeels bewolkt
Wind: Wind: ZW 24.1 km/h
Temperatuur: 9°C
Voelt als: 6°C
Dauwpunt: 8°C
Vochtigheid: 94%
Barometer: 1007 hPa
Bewolking: Grotendeels bewolkt
Zicht: meer dan 10 km
Bewolking: Grotendeels bewolkt 304.8 m
ELLX 230520Z 22013KT 9999 BKN010 09/08 Q1007 NOSIG
EBOS - Oostende
Gewijzigd: 23-03-2023 06:20
Grotendeels bewolkt    Wind: ZW 27.8 km/h
Grotendeels bewolkt
Wind: Wind: ZW 27.8 km/h
Temperatuur: 10°C
Voelt als: 7°C
Dauwpunt: 7°C
Vochtigheid: 82%
Barometer: 1001 hPa
Bewolking: Grotendeels bewolkt
Zicht: meer dan 10 km
Bewolking: Licht bewolkt 609.6 m,
Grotendeels bewolkt 1463 m
EBOS 230520Z 23015KT 9999 FEW020TCU BKN048 10/07 Q1001 TEMPO 22015G26KT 4000 SHRA
  

Script ontwikkeld door  Saratoga-weather.org Aangepast voor de template door  Weerstation Leuven

U vindt ons ook hier:

UK Metoffice

WeatherCloud

European Weather Network

Weather Underground

Benelux Weather Network

AWEKAS

WeatherlinkIP

HAMweather, WeatherForYou, PWS Weather

Het Weer Aktueel

Apparatuur in gebruik:

Weer-station
Davis VP2 weatherstation

Weer-programma
Meteobridge

Weer-computer
D-Link DIR-505

Davis VP2 weatherstation

Meteobridge

D-Link DIR-505